createdAt,value
2022-12-04T00:01:39.191Z,114.17
2022-12-04T00:04:07.402Z,113.47
2022-12-04T00:06:37.797Z,111.10
2022-12-04T00:09:06.522Z,122.80
2022-12-04T00:11:36.142Z,127.47
2022-12-04T00:14:07.161Z,127.20
2022-12-04T00:16:36.290Z,123.63
2022-12-04T00:19:05.035Z,120.20
2022-12-04T00:21:33.358Z,115.73
2022-12-04T00:24:02.148Z,118.87
2022-12-04T00:26:31.600Z,124.40
2022-12-04T00:29:01.639Z,115.63
2022-12-04T00:31:31.571Z,117.23
2022-12-04T00:34:00.847Z,132.07
2022-12-04T00:36:31.029Z,158.13
2022-12-04T00:39:00.593Z,130.87
2022-12-04T00:41:31.224Z,132.57
2022-12-04T00:44:01.350Z,133.33
2022-12-04T00:46:29.883Z,121.37
2022-12-04T00:48:58.968Z,117.87
2022-12-04T00:51:27.125Z,127.27
2022-12-04T00:53:55.369Z,109.07
2022-12-04T00:56:25.354Z,116.93
2022-12-04T00:58:54.677Z,136.47
2022-12-04T01:01:25.382Z,114.00
2022-12-04T01:03:55.251Z,122.30
2022-12-04T01:06:25.980Z,116.13
2022-12-04T01:08:56.123Z,120.37
2022-12-04T01:11:26.070Z,117.23
2022-12-04T01:13:54.429Z,131.20
2022-12-04T01:16:26.569Z,142.50
2022-12-04T01:18:54.827Z,131.80
2022-12-04T01:21:23.226Z,133.63
2022-12-04T01:23:51.479Z,127.70
2022-12-04T01:26:20.387Z,132.37
2022-12-04T01:28:48.662Z,115.27
2022-12-04T01:31:19.361Z,140.73
2022-12-04T01:33:49.971Z,128.50
2022-12-04T01:36:20.544Z,119.17
2022-12-04T01:38:48.984Z,120.37
2022-12-04T01:41:20.394Z,136.53
2022-12-04T01:44:07.709Z,125.10
2022-12-04T01:46:35.860Z,115.47
2022-12-04T01:49:07.929Z,128.23
2022-12-04T01:51:40.412Z,127.00
2022-12-04T01:54:12.522Z,133.40
2022-12-04T01:56:46.246Z,137.63
2022-12-04T01:59:18.175Z,133.27
2022-12-04T02:01:53.611Z,144.87
2022-12-04T02:04:23.212Z,128.10
2022-12-04T02:06:51.499Z,117.80
2022-12-04T02:09:26.221Z,140.90
2022-12-04T02:12:03.583Z,121.50
2022-12-04T02:14:38.743Z,117.63
2022-12-04T02:17:17.827Z,125.67
2022-12-04T02:20:13.569Z,124.40
2022-12-04T02:23:02.868Z,110.23
2022-12-04T02:25:41.305Z,121.30
2022-12-04T02:28:18.520Z,116.43
2022-12-04T02:30:48.305Z,125.73
2022-12-04T02:33:21.534Z,127.97
2022-12-04T02:35:56.065Z,116.00
2022-12-04T02:38:28.117Z,133.33
2022-12-04T02:41:00.545Z,105.90
2022-12-04T02:43:33.649Z,123.40
2022-12-04T02:46:08.147Z,119.77
2022-12-04T02:48:40.565Z,114.67
2022-12-04T02:51:12.567Z,126.13
2022-12-04T02:53:46.736Z,119.40
2022-12-04T02:56:20.165Z,131.00
2022-12-04T02:58:54.899Z,125.67
2022-12-04T03:01:28.952Z,106.87
2022-12-04T03:04:01.777Z,129.40
2022-12-04T03:06:34.142Z,123.80
2022-12-04T03:09:09.702Z,117.73
2022-12-04T03:11:41.470Z,124.00
2022-12-04T03:14:15.623Z,123.93
2022-12-04T03:16:44.610Z,114.70
2022-12-04T03:19:17.080Z,132.37
2022-12-04T03:21:49.136Z,109.00
2022-12-04T03:24:22.067Z,120.27
2022-12-04T03:26:58.407Z,123.47
2022-12-04T03:29:35.298Z,113.20
2022-12-04T03:32:11.952Z,98.93
2022-12-04T03:34:48.463Z,110.93
2022-12-04T03:37:20.536Z,108.03
2022-12-04T03:39:58.110Z,111.57
2022-12-04T03:42:29.817Z,99.07
2022-12-04T03:45:05.203Z,107.13
2022-12-04T03:47:39.780Z,101.37
2022-12-04T03:50:11.210Z,104.53
2022-12-04T03:52:50.850Z,119.20
2022-12-04T03:55:25.387Z,106.90
2022-12-04T03:57:59.688Z,112.80
2022-12-04T04:00:31.953Z,123.50
2022-12-04T04:03:07.772Z,122.33
2022-12-04T04:05:43.064Z,113.13
2022-12-04T04:08:33.851Z,109.90
2022-12-04T04:11:11.282Z,118.27
2022-12-04T04:14:06.704Z,116.57
2022-12-04T04:16:56.920Z,113.97
2022-12-04T04:19:46.806Z,116.47
2022-12-04T04:22:35.643Z,98.77
2022-12-04T04:25:08.759Z,114.47
2022-12-04T04:27:36.921Z,110.70
2022-12-04T04:30:06.417Z,117.50
2022-12-04T04:32:42.045Z,139.03
2022-12-04T04:35:18.830Z,118.70
2022-12-04T04:37:57.464Z,112.93
2022-12-04T04:40:34.875Z,123.10
2022-12-04T04:43:11.011Z,132.47
2022-12-04T04:45:44.658Z,146.67
2022-12-04T04:48:17.645Z,119.53
2022-12-04T04:50:47.111Z,122.50
2022-12-04T04:53:21.119Z,128.30
2022-12-04T04:55:50.010Z,116.23
2022-12-04T04:58:21.559Z,115.90
2022-12-04T05:00:58.865Z,131.67
2022-12-04T05:03:29.663Z,112.07
2022-12-04T05:05:58.216Z,111.73
2022-12-04T05:08:26.603Z,115.17
2022-12-04T05:10:55.175Z,108.10
2022-12-04T05:13:23.804Z,127.37
2022-12-04T05:15:58.369Z,118.17
2022-12-04T05:18:28.277Z,116.97
2022-12-04T05:20:56.764Z,129.00
2022-12-04T05:23:25.748Z,114.73
2022-12-04T05:26:00.362Z,126.57
2022-12-04T05:28:28.708Z,114.07
2022-12-04T05:30:57.365Z,110.20
2022-12-04T05:33:26.255Z,110.13
2022-12-04T05:36:00.657Z,113.27
2022-12-04T05:38:28.909Z,131.20
2022-12-04T05:40:59.122Z,119.13
2022-12-04T05:43:27.821Z,106.37
2022-12-04T05:45:56.428Z,120.03
2022-12-04T05:48:24.556Z,130.10
2022-12-04T05:50:52.680Z,124.17
2022-12-04T05:53:22.178Z,109.23
2022-12-04T05:55:55.724Z,140.30
2022-12-04T05:58:23.989Z,130.70
2022-12-04T06:00:52.155Z,120.33
2022-12-04T06:03:20.542Z,125.23
2022-12-04T06:05:48.740Z,115.07
2022-12-04T06:08:17.261Z,120.13
2022-12-04T06:10:46.718Z,110.30
2022-12-04T06:13:14.858Z,125.50
2022-12-04T06:15:43.011Z,120.70
2022-12-04T06:18:11.217Z,121.43
2022-12-04T06:20:39.449Z,120.97
2022-12-04T06:23:07.600Z,115.37
2022-12-04T06:25:35.735Z,119.67
2022-12-04T06:28:05.277Z,136.77
2022-12-04T06:30:34.830Z,109.70
2022-12-04T06:33:02.988Z,116.80
2022-12-04T06:35:31.190Z,118.23
2022-12-04T06:38:00.052Z,115.93
2022-12-04T06:40:28.267Z,122.43
2022-12-04T06:42:57.585Z,123.03
2022-12-04T06:45:27.093Z,134.70
2022-12-04T06:47:55.235Z,123.40
2022-12-04T06:50:23.361Z,120.87
2022-12-04T06:52:51.487Z,117.00
2022-12-04T06:55:19.629Z,143.57
2022-12-04T06:57:47.807Z,111.60
2022-12-04T07:00:17.528Z,122.17
2022-12-04T07:02:47.142Z,143.43
2022-12-04T07:05:15.419Z,119.30
2022-12-04T07:07:43.617Z,126.67
2022-12-04T07:10:12.346Z,123.30
2022-12-04T07:12:40.491Z,126.47
2022-12-04T07:15:09.867Z,117.37
2022-12-04T07:17:37.987Z,119.70
2022-12-04T07:20:08.589Z,117.23
2022-12-04T07:22:36.719Z,121.97
2022-12-04T07:25:05.111Z,128.60
2022-12-04T07:27:33.261Z,126.93
2022-12-04T07:30:01.399Z,135.03
2022-12-04T07:32:29.537Z,129.17
2022-12-04T07:34:57.705Z,113.10
2022-12-04T07:37:27.184Z,111.73
2022-12-04T07:39:55.715Z,124.60
2022-12-04T07:42:24.453Z,118.07
2022-12-04T07:44:52.994Z,116.87
2022-12-04T07:47:21.169Z,131.63
2022-12-04T07:49:49.310Z,122.13
2022-12-04T07:52:17.434Z,127.57
2022-12-04T07:54:46.921Z,117.17
2022-12-04T07:57:15.600Z,108.97
2022-12-04T07:59:43.724Z,120.00
2022-12-04T08:02:13.167Z,111.80
2022-12-04T08:04:41.338Z,111.37
2022-12-04T08:07:09.525Z,112.20
2022-12-04T08:09:37.660Z,121.63
2022-12-04T08:12:07.894Z,108.10
2022-12-04T08:14:36.003Z,118.67
2022-12-04T08:17:04.260Z,123.17
2022-12-04T08:19:32.452Z,124.00
2022-12-04T08:22:00.576Z,114.10
2022-12-04T08:24:28.702Z,110.50
2022-12-04T08:26:56.825Z,106.07
2022-12-04T08:29:26.304Z,113.00
2022-12-04T08:31:54.670Z,117.27
2022-12-04T08:34:22.836Z,104.97
2022-12-04T08:36:51.006Z,106.50
2022-12-04T08:39:19.131Z,112.00
2022-12-04T08:41:49.101Z,97.03
2022-12-04T08:44:20.624Z,101.73
2022-12-04T08:46:50.223Z,104.93
2022-12-04T08:49:18.392Z,113.50
2022-12-04T08:51:46.512Z,102.87
2022-12-04T08:54:14.764Z,109.37
2022-12-04T08:56:44.473Z,109.17
2022-12-04T08:59:14.152Z,103.80
2022-12-04T09:01:42.433Z,121.53
2022-12-04T09:04:12.002Z,97.60
2022-12-04T09:06:40.469Z,97.90
2022-12-04T09:09:08.596Z,104.00
2022-12-04T09:11:37.081Z,100.57
2022-12-04T09:14:05.718Z,125.40
2022-12-04T09:16:33.930Z,96.33
2022-12-04T09:19:02.249Z,100.10
2022-12-04T09:21:31.734Z,100.93
2022-12-04T09:24:00.520Z,109.00
2022-12-04T09:26:31.389Z,98.27
2022-12-04T09:29:01.493Z,99.50
2022-12-04T09:31:31.004Z,93.83
2022-12-04T09:33:59.696Z,92.17
2022-12-04T09:36:27.967Z,110.40
2022-12-04T09:38:58.668Z,98.13
2022-12-04T09:41:59.619Z,84.90
2022-12-04T09:44:33.164Z,91.80
2022-12-04T09:47:04.104Z,100.00
2022-12-04T09:49:38.189Z,96.77
2022-12-04T09:52:20.309Z,84.20
2022-12-04T09:54:53.554Z,98.90
2022-12-04T09:57:32.529Z,89.00
2022-12-04T10:00:00.818Z,93.27
2022-12-04T10:02:38.088Z,84.53
2022-12-04T10:05:08.813Z,93.63
2022-12-04T10:07:46.772Z,88.77
2022-12-04T10:10:24.422Z,80.30
2022-12-04T10:13:01.072Z,90.13
2022-12-04T10:15:39.000Z,93.40
2022-12-04T10:18:20.180Z,106.63
2022-12-04T10:21:00.238Z,80.27
2022-12-04T10:23:38.997Z,82.17
2022-12-04T10:26:16.117Z,80.07
2022-12-04T10:28:53.519Z,76.30
2022-12-04T10:31:25.566Z,89.03
2022-12-04T10:33:57.678Z,84.87
2022-12-04T10:36:31.290Z,82.63
2022-12-04T10:39:02.192Z,72.80
2022-12-04T10:41:39.134Z,91.80
2022-12-04T10:44:07.577Z,75.07
2022-12-04T10:46:36.342Z,84.33
2022-12-04T10:49:09.533Z,85.20
2022-12-04T10:51:41.026Z,83.60
2022-12-04T10:54:18.220Z,78.63
2022-12-04T10:56:54.180Z,93.73
2022-12-04T10:59:23.202Z,85.00
2022-12-04T11:01:53.064Z,89.10
2022-12-04T11:04:24.770Z,80.33
2022-12-04T11:07:01.922Z,81.27
2022-12-04T11:09:30.423Z,82.67
2022-12-04T11:12:09.601Z,82.93
2022-12-04T11:14:37.916Z,86.60
2022-12-04T11:17:07.486Z,77.30
2022-12-04T11:19:37.190Z,99.17
2022-12-04T11:22:13.317Z,83.07
2022-12-04T11:24:42.848Z,91.67
2022-12-04T11:27:22.297Z,87.70
2022-12-04T11:29:51.039Z,93.57
2022-12-04T11:32:23.607Z,102.40
2022-12-04T11:34:55.021Z,102.00
2022-12-04T11:37:27.336Z,90.57
2022-12-04T11:39:56.620Z,105.37
2022-12-04T11:42:28.156Z,98.30
2022-12-04T11:44:59.717Z,92.27
2022-12-04T11:47:30.171Z,89.83
2022-12-04T11:50:03.346Z,92.83
2022-12-04T11:52:46.331Z,96.37
2022-12-04T11:55:25.274Z,97.67
2022-12-04T11:58:14.871Z,110.37
2022-12-04T12:00:50.912Z,117.87
2022-12-04T12:03:27.366Z,97.10
2022-12-04T12:06:30.900Z,121.17
2022-12-04T12:09:15.144Z,110.73
2022-12-04T12:11:50.614Z,114.80
2022-12-04T12:14:30.503Z,113.67
2022-12-04T12:17:10.339Z,110.57
2022-12-04T12:19:56.492Z,121.03
2022-12-04T12:22:40.251Z,128.30
2022-12-04T12:25:18.935Z,109.67
2022-12-04T12:28:03.290Z,123.40
2022-12-04T12:30:43.014Z,101.40
2022-12-04T12:33:19.150Z,111.03
2022-12-04T12:35:52.621Z,108.53
2022-12-04T12:38:25.953Z,120.43
2022-12-04T12:40:58.081Z,117.73
2022-12-04T12:43:31.018Z,121.73
2022-12-04T12:46:06.975Z,119.37
2022-12-04T12:48:41.052Z,117.77
2022-12-04T12:51:30.129Z,129.77
2022-12-04T12:54:05.621Z,114.77
2022-12-04T12:56:40.508Z,139.50
2022-12-04T12:59:16.461Z,112.13
2022-12-04T13:01:54.751Z,124.23
2022-12-04T13:04:33.081Z,126.67
2022-12-04T13:07:15.240Z,114.23
2022-12-04T13:09:49.178Z,133.83
2022-12-04T13:12:21.420Z,117.60
2022-12-04T13:14:49.564Z,136.47
2022-12-04T13:17:24.953Z,122.20
2022-12-04T13:19:56.166Z,116.47
2022-12-04T13:22:30.068Z,114.70
2022-12-04T13:25:10.348Z,125.10
2022-12-04T13:27:52.630Z,103.50
2022-12-04T13:30:22.725Z,117.97
2022-12-04T13:33:12.560Z,127.27
2022-12-04T13:36:01.600Z,130.87
2022-12-04T13:38:39.689Z,128.37
2022-12-04T13:41:11.768Z,123.33
2022-12-04T13:43:47.347Z,138.00
2022-12-04T13:46:31.253Z,136.33
2022-12-04T13:49:10.932Z,126.30
2022-12-04T13:51:40.404Z,120.13
2022-12-04T13:54:31.267Z,148.10
2022-12-04T13:57:19.552Z,150.37
2022-12-04T13:59:48.847Z,145.70
2022-12-04T14:02:29.787Z,133.77
2022-12-04T14:05:01.854Z,137.87
2022-12-04T14:07:33.135Z,136.60
2022-12-04T14:10:04.761Z,144.63
2022-12-04T14:12:36.181Z,158.57
2022-12-04T14:15:07.683Z,127.23
2022-12-04T14:17:38.964Z,149.53
2022-12-04T14:20:22.928Z,133.93
2022-12-04T14:22:51.220Z,135.33
2022-12-04T14:25:35.841Z,143.37
2022-12-04T14:28:27.039Z,133.00
2022-12-04T14:31:06.312Z,150.17
2022-12-04T14:33:40.235Z,144.57
2022-12-04T14:36:17.984Z,154.57
2022-12-04T14:38:49.034Z,156.53
2022-12-04T14:41:25.566Z,128.73
2022-12-04T14:43:54.136Z,164.33
2022-12-04T14:46:31.538Z,153.20
2022-12-04T14:49:12.948Z,175.40
2022-12-04T14:51:50.115Z,181.70
2022-12-04T14:54:27.649Z,154.60
2022-12-04T14:57:11.959Z,139.17
2022-12-04T14:59:45.112Z,170.93
2022-12-04T15:02:20.721Z,161.33
2022-12-04T15:04:51.303Z,153.60
2022-12-04T15:07:22.428Z,158.00
2022-12-04T15:10:12.871Z,170.90
2022-12-04T15:12:45.802Z,180.37
2022-12-04T15:15:19.257Z,164.87
2022-12-04T15:17:57.985Z,157.07
2022-12-04T15:20:27.298Z,172.23
2022-12-04T15:22:58.917Z,178.33
2022-12-04T15:25:30.718Z,174.00
2022-12-04T15:28:06.679Z,156.97
2022-12-04T15:30:38.784Z,172.27
2022-12-04T15:33:07.367Z,172.13
2022-12-04T15:35:35.936Z,190.47
2022-12-04T15:38:05.525Z,202.80
2022-12-04T15:40:33.661Z,192.33
2022-12-04T15:43:16.633Z,193.23
2022-12-04T15:45:45.570Z,174.37
2022-12-04T15:48:24.245Z,177.50
2022-12-04T15:50:58.028Z,181.10
2022-12-04T15:53:29.865Z,213.00
2022-12-04T15:56:02.417Z,168.27
2022-12-04T15:58:32.696Z,183.87
2022-12-04T16:01:03.316Z,177.50
2022-12-04T16:03:34.005Z,189.43
2022-12-04T16:06:17.606Z,155.47
2022-12-04T16:08:48.800Z,179.00
2022-12-04T16:11:34.548Z,167.80
2022-12-04T16:14:15.484Z,143.63
2022-12-04T16:16:45.779Z,127.83
2022-12-04T16:19:18.291Z,133.80
2022-12-04T16:21:46.799Z,156.30
2022-12-04T16:24:16.460Z,148.47
2022-12-04T16:26:44.639Z,168.20
2022-12-04T16:29:12.772Z,140.27
2022-12-04T16:31:41.035Z,146.93
2022-12-04T16:34:12.357Z,147.47
2022-12-04T16:36:40.882Z,142.73
2022-12-04T16:39:09.059Z,157.97
2022-12-04T16:41:38.539Z,146.50
2022-12-04T16:44:14.240Z,143.83
2022-12-04T16:46:43.025Z,157.00
2022-12-04T16:49:12.744Z,336.17
2022-12-04T16:51:46.781Z,683.33
2022-12-04T16:54:15.006Z,164.33
2022-12-04T16:56:44.480Z,154.37
2022-12-04T16:59:12.752Z,161.90
2022-12-04T17:01:44.240Z,150.40
2022-12-04T17:04:12.711Z,149.53
2022-12-04T17:06:41.262Z,139.83
2022-12-04T17:09:09.731Z,150.73
2022-12-04T17:11:38.092Z,149.63
2022-12-04T17:14:08.010Z,149.27
2022-12-04T17:16:36.814Z,146.40
2022-12-04T17:19:05.459Z,134.67
2022-12-04T17:21:34.241Z,144.53
2022-12-04T17:24:02.987Z,146.40
2022-12-04T17:26:31.157Z,154.67
2022-12-04T17:28:59.669Z,146.40
2022-12-04T17:31:29.247Z,135.63
2022-12-04T17:33:58.161Z,135.53
2022-12-04T17:36:27.598Z,162.07
2022-12-04T17:38:56.500Z,119.57
2022-12-04T17:41:25.154Z,153.77
2022-12-04T17:43:53.568Z,149.00
2022-12-04T17:46:24.584Z,120.07
2022-12-04T17:48:56.691Z,131.27
2022-12-04T17:51:26.110Z,136.87
2022-12-04T17:53:54.844Z,125.70
2022-12-04T17:56:24.988Z,126.07
2022-12-04T17:58:54.343Z,134.40
2022-12-04T18:01:24.935Z,131.50
2022-12-04T18:03:57.011Z,117.83
2022-12-04T18:06:27.476Z,120.47
2022-12-04T18:08:56.240Z,116.77
2022-12-04T18:11:26.129Z,127.73
2022-12-04T18:13:56.520Z,122.40
2022-12-04T18:16:25.295Z,122.10
2022-12-04T18:18:55.487Z,103.83
2022-12-04T18:21:24.056Z,115.70
2022-12-04T18:23:53.101Z,108.23
2022-12-04T18:26:24.121Z,126.07
2022-12-04T18:28:53.243Z,128.20
2022-12-04T18:31:22.156Z,115.20
2022-12-04T18:33:50.349Z,114.87
2022-12-04T18:36:23.524Z,127.83
2022-12-04T18:38:55.399Z,107.00
2022-12-04T18:41:24.288Z,109.67
2022-12-04T18:43:52.768Z,106.50
2022-12-04T18:46:21.909Z,125.20
2022-12-04T18:48:53.487Z,111.27
2022-12-04T18:51:25.202Z,118.70
2022-12-04T18:53:55.537Z,122.50
2022-12-04T18:56:23.941Z,111.60
2022-12-04T18:58:57.423Z,112.97
2022-12-04T19:01:25.719Z,108.60
2022-12-04T19:03:57.862Z,127.70
2022-12-04T19:06:31.619Z,122.73
2022-12-04T19:09:01.376Z,126.13
2022-12-04T19:11:29.610Z,117.53
2022-12-04T19:13:58.654Z,129.70
2022-12-04T19:16:27.416Z,127.60
2022-12-04T19:18:56.802Z,137.47
2022-12-04T19:21:25.479Z,120.17
2022-12-04T19:23:59.063Z,158.90
2022-12-04T19:26:28.296Z,137.17
2022-12-04T19:28:57.472Z,139.93
2022-12-04T19:31:28.279Z,140.13
2022-12-04T19:33:57.756Z,127.13
2022-12-04T19:36:26.938Z,125.40
2022-12-04T19:38:57.771Z,127.20
2022-12-04T19:41:29.989Z,144.97
2022-12-04T19:44:00.109Z,144.93
2022-12-04T19:46:31.063Z,138.70
2022-12-04T19:49:03.630Z,125.13
2022-12-04T19:51:33.674Z,122.40
2022-12-04T19:54:03.273Z,116.03
2022-12-04T19:56:33.079Z,134.60
2022-12-04T19:59:03.190Z,146.80
2022-12-04T20:01:32.328Z,153.93
2022-12-04T20:04:03.415Z,161.30
2022-12-04T20:06:35.308Z,156.87
2022-12-04T20:09:07.107Z,141.27
2022-12-04T20:11:35.496Z,142.80
2022-12-04T20:14:05.676Z,137.10
2022-12-04T20:16:35.470Z,132.97
2022-12-04T20:19:05.452Z,164.73
2022-12-04T20:21:34.486Z,147.80
2022-12-04T20:24:06.827Z,156.40
2022-12-04T20:26:38.249Z,153.37
2022-12-04T20:29:08.645Z,159.70
2022-12-04T20:31:38.395Z,139.37
2022-12-04T20:34:08.905Z,167.17
2022-12-04T20:36:39.166Z,152.27
2022-12-04T20:39:10.454Z,157.00
2022-12-04T20:41:40.747Z,150.97
2022-12-04T20:44:13.295Z,161.13
2022-12-04T20:46:42.811Z,168.43
2022-12-04T20:49:18.758Z,165.97
2022-12-04T20:51:49.563Z,163.07
2022-12-04T20:54:20.779Z,160.83
2022-12-04T20:56:50.009Z,166.27
2022-12-04T20:59:19.753Z,176.50
2022-12-04T21:01:49.401Z,197.50
2022-12-04T21:04:18.608Z,177.77
2022-12-04T21:06:47.667Z,167.17
2022-12-04T21:09:18.024Z,159.33
2022-12-04T21:11:49.054Z,164.13
2022-12-04T21:14:36.703Z,185.77
2022-12-04T21:17:07.515Z,177.20
2022-12-04T21:19:36.610Z,196.70
2022-12-04T21:22:05.026Z,177.40
2022-12-04T21:24:38.271Z,183.83
2022-12-04T21:27:09.133Z,194.50
2022-12-04T21:29:38.404Z,214.87
2022-12-04T21:32:07.955Z,179.23
2022-12-04T21:34:36.372Z,189.07
2022-12-04T21:37:04.581Z,204.23
2022-12-04T21:39:32.973Z,216.10
2022-12-04T21:42:18.588Z,178.37
2022-12-04T21:44:48.383Z,188.07
2022-12-04T21:47:16.556Z,202.87
2022-12-04T21:49:45.148Z,188.77
2022-12-04T21:52:13.390Z,235.93
2022-12-04T21:54:41.546Z,207.63
2022-12-04T21:57:09.852Z,199.97
2022-12-04T21:59:37.982Z,228.77
2022-12-04T22:02:07.531Z,198.63
2022-12-04T22:04:35.741Z,257.23
2022-12-04T22:07:03.904Z,203.20
2022-12-04T22:09:32.148Z,224.37
2022-12-04T22:12:00.539Z,175.23
2022-12-04T22:14:29.091Z,240.43
2022-12-04T22:16:57.236Z,224.97
2022-12-04T22:19:26.820Z,236.67
2022-12-04T22:21:55.227Z,174.57
2022-12-04T22:24:23.392Z,198.77
2022-12-04T22:26:51.528Z,228.80
2022-12-04T22:29:50.253Z,221.27
2022-12-04T22:32:07.897Z,216.13
2022-12-04T22:34:37.359Z,247.77
2022-12-04T22:37:05.479Z,222.40
2022-12-04T22:39:33.970Z,203.57
2022-12-04T22:42:02.102Z,212.83
2022-12-04T22:44:30.256Z,215.67
2022-12-04T22:46:58.438Z,203.77
2022-12-04T22:49:26.659Z,191.27
2022-12-04T22:51:56.134Z,220.00
2022-12-04T22:54:24.697Z,195.43
2022-12-04T22:56:53.331Z,186.63
2022-12-04T22:59:21.519Z,190.27
2022-12-04T23:01:49.655Z,200.30
2022-12-04T23:04:17.781Z,189.23
2022-12-04T23:06:45.940Z,194.70
2022-12-04T23:09:17.560Z,196.90
2022-12-04T23:11:46.474Z,193.77
2022-12-04T23:14:15.815Z,193.27
2022-12-04T23:16:44.402Z,201.57
2022-12-04T23:19:14.795Z,195.73
2022-12-04T23:21:43.673Z,196.80
2022-12-04T23:24:12.406Z,194.10
2022-12-04T23:26:44.291Z,191.90
2022-12-04T23:29:36.895Z,170.03
2022-12-04T23:32:01.085Z,206.63
2022-12-04T23:34:29.325Z,201.20
2022-12-04T23:36:57.468Z,183.83
2022-12-04T23:39:25.615Z,185.13
2022-12-04T23:41:55.081Z,179.70
2022-12-04T23:44:23.217Z,173.93
2022-12-04T23:46:51.400Z,178.57
2022-12-04T23:49:19.588Z,192.40
2022-12-04T23:51:47.788Z,181.53
2022-12-04T23:54:16.217Z,207.13
2022-12-04T23:56:45.148Z,166.83
2022-12-04T23:59:14.618Z,191.57
